createdAt,value
2018-12-31T00:00:28.469Z,9.10
2018-12-31T00:02:56.956Z,9.10
2018-12-31T00:05:25.420Z,9.10
2018-12-31T00:07:53.887Z,9.10
2018-12-31T00:10:22.409Z,9.20
2018-12-31T00:12:50.918Z,9.10
2018-12-31T00:15:19.411Z,9.10
2018-12-31T00:17:47.900Z,9.10
2018-12-31T00:20:16.357Z,9.10
2018-12-31T00:22:44.816Z,9.20
2018-12-31T00:25:13.296Z,9.20
2018-12-31T00:27:41.762Z,9.10
2018-12-31T00:30:11.820Z,9.20
2018-12-31T00:32:40.307Z,9.20
2018-12-31T00:35:08.788Z,9.10
2018-12-31T00:37:37.283Z,9.10
2018-12-31T00:40:06.231Z,9.10
2018-12-31T00:42:34.705Z,9.20
2018-12-31T00:45:03.639Z,9.20
2018-12-31T00:47:32.124Z,9.20
2018-12-31T00:50:00.586Z,9.10
2018-12-31T00:52:29.047Z,9.20
2018-12-31T00:54:57.592Z,9.10
2018-12-31T00:57:26.080Z,9.20
2018-12-31T00:59:54.616Z,9.20
2018-12-31T01:02:23.097Z,9.10
2018-12-31T01:04:51.625Z,9.20
2018-12-31T01:07:20.080Z,9.20
2018-12-31T01:09:48.570Z,9.20
2018-12-31T01:12:17.029Z,9.20
2018-12-31T01:14:48.368Z,9.20
2018-12-31T01:17:16.847Z,9.20
2018-12-31T01:19:45.387Z,9.20
2018-12-31T01:22:13.845Z,9.20
2018-12-31T01:24:42.395Z,9.20
2018-12-31T01:27:10.852Z,9.20
2018-12-31T01:29:39.303Z,9.20
2018-12-31T01:32:07.885Z,9.20
2018-12-31T01:34:36.367Z,9.20
2018-12-31T01:37:04.825Z,9.20
2018-12-31T01:39:33.292Z,9.20
2018-12-31T01:42:01.746Z,9.20
2018-12-31T01:44:30.357Z,9.20
2018-12-31T01:46:58.894Z,9.20
2018-12-31T01:49:27.412Z,9.20
2018-12-31T01:51:55.880Z,9.20
2018-12-31T01:54:24.500Z,9.20
2018-12-31T01:56:52.966Z,9.20
2018-12-31T01:59:21.439Z,9.20
2018-12-31T02:01:50.021Z,9.20
2018-12-31T02:04:18.472Z,9.20
2018-12-31T02:06:46.970Z,9.20
2018-12-31T02:09:15.566Z,9.20
2018-12-31T02:11:44.049Z,9.20
2018-12-31T02:14:12.500Z,9.20
2018-12-31T02:16:40.984Z,9.20
2018-12-31T02:19:09.507Z,9.20
2018-12-31T02:21:38.000Z,9.20
2018-12-31T02:24:06.487Z,9.20
2018-12-31T02:26:34.959Z,9.20
2018-12-31T02:29:03.420Z,9.20
2018-12-31T02:31:32.568Z,9.20
2018-12-31T02:34:01.035Z,9.20
2018-12-31T02:36:29.583Z,9.20
2018-12-31T02:38:58.154Z,9.20
2018-12-31T02:41:26.620Z,9.20
2018-12-31T02:43:55.084Z,9.30
2018-12-31T02:46:23.588Z,9.30
2018-12-31T02:48:52.049Z,9.30
2018-12-31T02:51:20.517Z,9.30
2018-12-31T02:53:49.020Z,9.20
2018-12-31T02:56:17.480Z,9.30
2018-12-31T02:58:45.928Z,9.20
2018-12-31T03:01:14.445Z,9.20
2018-12-31T03:03:42.935Z,9.20
2018-12-31T03:06:11.386Z,9.30
2018-12-31T03:08:39.868Z,9.20
2018-12-31T03:11:08.336Z,9.30
2018-12-31T03:13:36.844Z,9.20
2018-12-31T03:16:05.379Z,9.30
2018-12-31T03:18:33.839Z,9.30
2018-12-31T03:21:02.317Z,9.30
2018-12-31T03:23:30.846Z,9.20
2018-12-31T03:25:59.348Z,9.20
2018-12-31T03:28:27.833Z,9.20
2018-12-31T03:30:56.327Z,9.30
2018-12-31T03:33:24.849Z,9.30
2018-12-31T03:35:53.327Z,9.20
2018-12-31T03:38:21.811Z,9.30
2018-12-31T03:40:50.276Z,9.30
2018-12-31T03:43:18.730Z,9.30
2018-12-31T03:45:47.217Z,9.30
2018-12-31T03:48:15.700Z,9.30
2018-12-31T03:50:44.233Z,9.30
2018-12-31T03:53:12.705Z,9.30
2018-12-31T03:55:41.237Z,9.30
2018-12-31T03:58:11.232Z,9.30
2018-12-31T04:00:39.738Z,9.30
2018-12-31T04:03:08.264Z,9.30
2018-12-31T04:05:36.730Z,9.30
2018-12-31T04:08:05.204Z,9.30
2018-12-31T04:10:33.669Z,9.30
2018-12-31T04:13:02.650Z,9.30
2018-12-31T04:15:31.124Z,9.30
2018-12-31T04:17:59.587Z,9.30
2018-12-31T04:20:28.080Z,9.30
2018-12-31T04:22:56.585Z,9.30
2018-12-31T04:25:25.120Z,9.30
2018-12-31T04:27:53.640Z,9.30
2018-12-31T04:30:22.144Z,9.30
2018-12-31T04:32:50.604Z,9.30
2018-12-31T04:35:19.079Z,9.30
2018-12-31T04:37:47.562Z,9.30
2018-12-31T04:40:16.041Z,9.30
2018-12-31T04:42:44.496Z,9.30
2018-12-31T04:45:12.973Z,9.30
2018-12-31T04:47:41.465Z,9.30
2018-12-31T04:50:09.916Z,9.30
2018-12-31T04:52:38.375Z,9.30
2018-12-31T04:55:06.865Z,9.30
2018-12-31T04:57:35.320Z,9.30
2018-12-31T05:00:04.033Z,9.30
2018-12-31T05:02:32.509Z,9.30
2018-12-31T05:05:01.085Z,9.30
2018-12-31T05:07:29.541Z,9.30
2018-12-31T05:09:58.106Z,9.20
2018-12-31T05:12:26.561Z,9.30
2018-12-31T05:14:55.033Z,9.20
2018-12-31T05:17:30.844Z,9.20
2018-12-31T05:19:59.313Z,9.20
2018-12-31T05:22:27.768Z,9.20
2018-12-31T05:24:56.267Z,9.20
2018-12-31T05:27:24.745Z,9.20
2018-12-31T05:29:53.196Z,9.20
2018-12-31T05:32:21.680Z,9.20
2018-12-31T05:34:50.152Z,9.20
2018-12-31T05:37:18.620Z,9.20
2018-12-31T05:39:47.112Z,9.20
2018-12-31T05:42:15.651Z,9.20
2018-12-31T05:44:44.114Z,9.20
2018-12-31T05:47:12.612Z,9.10
2018-12-31T05:49:41.142Z,9.20
2018-12-31T05:52:09.598Z,9.20
2018-12-31T05:54:38.120Z,9.10
2018-12-31T05:57:06.588Z,9.20
2018-12-31T05:59:35.044Z,9.20
2018-12-31T06:02:03.677Z,9.20
2018-12-31T06:04:33.096Z,9.20
2018-12-31T06:07:01.679Z,9.20
2018-12-31T06:09:30.232Z,9.20
2018-12-31T06:11:58.692Z,9.20
2018-12-31T06:14:27.161Z,9.20
2018-12-31T06:16:55.745Z,9.20
2018-12-31T06:19:24.209Z,9.20
2018-12-31T06:21:52.668Z,9.20
2018-12-31T06:24:21.149Z,9.20
2018-12-31T06:26:49.677Z,9.20
2018-12-31T06:29:18.136Z,9.20
2018-12-31T06:31:46.608Z,9.20
2018-12-31T06:34:15.096Z,9.20
2018-12-31T06:36:43.616Z,9.20
2018-12-31T06:39:12.103Z,9.20
2018-12-31T06:41:40.555Z,9.20
2018-12-31T06:44:09.011Z,9.20
2018-12-31T06:46:37.508Z,9.20
2018-12-31T06:49:05.965Z,9.20
2018-12-31T06:51:34.420Z,9.20
2018-12-31T06:54:02.916Z,9.20
2018-12-31T06:56:31.383Z,9.20
2018-12-31T06:58:59.865Z,9.20
2018-12-31T07:01:28.359Z,9.20
2018-12-31T07:03:56.869Z,9.20
2018-12-31T07:06:25.332Z,9.20
2018-12-31T07:08:53.860Z,9.20
2018-12-31T07:11:22.321Z,9.20
2018-12-31T07:13:50.781Z,9.20
2018-12-31T07:16:19.272Z,9.20
2018-12-31T07:18:47.807Z,9.20
2018-12-31T07:21:16.263Z,9.20
2018-12-31T07:23:44.760Z,9.20
2018-12-31T07:26:13.224Z,9.20
2018-12-31T07:28:41.681Z,9.20
2018-12-31T07:31:10.153Z,9.20
2018-12-31T07:33:38.701Z,9.20
2018-12-31T07:36:07.157Z,9.10
2018-12-31T07:38:35.720Z,9.10
2018-12-31T07:41:04.272Z,9.20
2018-12-31T07:43:33.500Z,9.20
2018-12-31T07:46:01.972Z,9.20
2018-12-31T07:48:30.475Z,9.20
2018-12-31T07:50:58.951Z,9.20
2018-12-31T07:53:27.478Z,9.20
2018-12-31T07:55:56.044Z,9.10
2018-12-31T07:58:24.560Z,9.20
2018-12-31T08:00:53.019Z,9.20
2018-12-31T08:03:21.495Z,9.20
2018-12-31T08:05:49.976Z,9.20
2018-12-31T08:08:18.475Z,9.20
2018-12-31T08:10:47.089Z,9.20
2018-12-31T08:13:15.601Z,9.20
2018-12-31T08:15:44.369Z,9.20
2018-12-31T08:18:13.232Z,9.20
2018-12-31T08:20:41.763Z,9.20
2018-12-31T08:23:10.225Z,9.20
2018-12-31T08:25:38.697Z,9.20
2018-12-31T08:28:07.280Z,9.20
2018-12-31T08:30:36.268Z,9.20
2018-12-31T08:33:05.795Z,9.20
2018-12-31T08:35:34.249Z,9.20
2018-12-31T08:38:02.732Z,9.20
2018-12-31T08:40:31.208Z,9.20
2018-12-31T08:42:59.813Z,9.20
2018-12-31T08:45:28.365Z,9.20
2018-12-31T08:47:56.896Z,9.20
2018-12-31T08:50:25.373Z,9.20
2018-12-31T08:52:55.444Z,9.20
2018-12-31T08:55:24.032Z,9.20
2018-12-31T08:57:52.591Z,9.20
2018-12-31T09:00:21.069Z,9.20
2018-12-31T09:02:49.544Z,9.30
2018-12-31T09:05:18.007Z,9.30
2018-12-31T09:07:46.493Z,9.30
2018-12-31T09:10:15.022Z,9.30
2018-12-31T09:12:43.576Z,9.30
2018-12-31T09:15:12.069Z,9.30
2018-12-31T09:17:40.526Z,9.30
2018-12-31T09:20:09.077Z,9.40
2018-12-31T09:22:37.628Z,9.40
2018-12-31T09:25:06.133Z,9.40
2018-12-31T09:27:34.595Z,9.40
2018-12-31T09:30:03.271Z,9.40
2018-12-31T09:32:31.753Z,9.50
2018-12-31T09:35:01.871Z,9.40
2018-12-31T09:37:30.372Z,9.40
2018-12-31T09:39:58.972Z,9.50
2018-12-31T09:42:27.440Z,9.40
2018-12-31T09:44:55.928Z,9.50
2018-12-31T09:47:24.596Z,9.40
2018-12-31T09:49:53.177Z,9.50
2018-12-31T09:52:22.064Z,9.40
2018-12-31T09:55:08.335Z,9.40
2018-12-31T09:57:36.784Z,9.40
2018-12-31T10:00:06.786Z,9.40
2018-12-31T10:02:35.276Z,9.50
2018-12-31T10:05:03.813Z,9.50
2018-12-31T10:07:35.030Z,9.50
2018-12-31T10:10:03.691Z,9.50
2018-12-31T10:12:32.148Z,9.50
2018-12-31T10:15:00.612Z,9.50
2018-12-31T10:17:29.282Z,9.50
2018-12-31T10:19:57.829Z,9.50
2018-12-31T10:22:26.348Z,9.40
2018-12-31T10:24:54.862Z,9.50
2018-12-31T10:27:23.334Z,9.50
2018-12-31T10:29:53.334Z,9.50
2018-12-31T10:32:21.832Z,9.50
2018-12-31T10:34:50.379Z,9.60
2018-12-31T10:37:18.843Z,9.60
2018-12-31T10:39:47.382Z,9.60
2018-12-31T10:42:15.894Z,9.60
2018-12-31T10:44:44.908Z,9.60
2018-12-31T10:47:13.396Z,9.60
2018-12-31T10:49:41.930Z,9.60
2018-12-31T10:52:10.533Z,9.60
2018-12-31T10:54:39.118Z,9.60
2018-12-31T10:57:07.648Z,9.60
2018-12-31T10:59:36.169Z,9.60
2018-12-31T11:02:24.197Z,9.70
2018-12-31T11:04:52.735Z,9.70
2018-12-31T11:07:21.194Z,9.70
2018-12-31T11:09:49.883Z,9.70
2018-12-31T11:12:20.016Z,9.70
2018-12-31T11:14:48.554Z,9.80
2018-12-31T11:17:17.055Z,9.80
2018-12-31T11:19:45.530Z,9.90
2018-12-31T11:22:14.020Z,9.90
2018-12-31T11:24:44.246Z,10.00
2018-12-31T11:27:12.803Z,10.00
2018-12-31T11:29:41.295Z,10.00
2018-12-31T11:32:09.888Z,10.00
2018-12-31T11:34:38.640Z,10.00
2018-12-31T11:37:07.124Z,10.00
2018-12-31T11:39:35.624Z,10.00
2018-12-31T11:42:04.290Z,10.00
2018-12-31T11:44:32.784Z,9.90
2018-12-31T11:47:01.265Z,9.90
2018-12-31T11:49:29.780Z,9.80
2018-12-31T11:51:58.264Z,9.80
2018-12-31T11:54:26.734Z,9.80
2018-12-31T11:56:55.191Z,9.80
2018-12-31T11:59:23.681Z,9.80
2018-12-31T12:01:52.236Z,9.80
2018-12-31T12:04:20.695Z,9.80
2018-12-31T12:06:49.176Z,9.80
2018-12-31T12:09:18.543Z,9.80
2018-12-31T12:11:47.100Z,9.90
2018-12-31T12:14:15.639Z,9.90
2018-12-31T12:16:44.577Z,9.90
2018-12-31T12:19:13.033Z,9.90
2018-12-31T12:21:41.556Z,10.00
2018-12-31T12:24:10.019Z,10.00
2018-12-31T12:26:39.135Z,10.00
2018-12-31T12:29:07.780Z,10.10
2018-12-31T12:31:36.340Z,10.10
2018-12-31T12:34:04.948Z,10.10
2018-12-31T12:36:33.555Z,10.10
2018-12-31T12:39:02.104Z,10.10
2018-12-31T12:41:30.573Z,10.00
2018-12-31T12:43:59.600Z,10.00
2018-12-31T12:46:28.092Z,10.00
2018-12-31T12:48:56.629Z,10.00
2018-12-31T12:51:25.125Z,10.10
2018-12-31T12:53:53.590Z,10.10
2018-12-31T12:56:22.632Z,10.00
2018-12-31T12:58:51.445Z,10.00
2018-12-31T13:01:20.104Z,10.00
2018-12-31T13:03:48.599Z,10.10
2018-12-31T13:06:17.100Z,10.00
2018-12-31T13:08:46.153Z,10.10
2018-12-31T13:11:14.688Z,10.10
2018-12-31T13:13:43.277Z,10.20
2018-12-31T13:16:11.918Z,10.20
2018-12-31T13:18:40.533Z,10.20
2018-12-31T13:21:09.628Z,10.20
2018-12-31T13:23:38.109Z,10.20
2018-12-31T13:26:06.580Z,10.50
2018-12-31T13:28:35.152Z,10.90
2018-12-31T13:31:03.697Z,10.80
2018-12-31T13:33:32.673Z,10.60
2018-12-31T13:36:01.265Z,10.50
2018-12-31T13:38:29.807Z,10.30
2018-12-31T13:40:58.365Z,10.30
2018-12-31T13:43:26.996Z,10.30
2018-12-31T13:45:55.527Z,10.30
2018-12-31T13:48:24.033Z,10.30
2018-12-31T13:50:52.528Z,10.30
2018-12-31T13:53:21.001Z,10.20
2018-12-31T13:55:49.469Z,10.20
2018-12-31T13:58:18.056Z,10.20
2018-12-31T14:00:46.603Z,10.30
2018-12-31T14:03:17.379Z,10.30
2018-12-31T14:05:46.225Z,10.20
2018-12-31T14:08:15.340Z,10.20
2018-12-31T14:10:43.809Z,10.20
2018-12-31T14:13:12.356Z,10.20
2018-12-31T14:15:40.934Z,10.10
2018-12-31T14:18:09.474Z,10.10
2018-12-31T14:20:38.124Z,10.10
2018-12-31T14:23:06.665Z,10.10
2018-12-31T14:25:35.137Z,10.10
2018-12-31T14:28:05.094Z,10.10
2018-12-31T14:30:33.688Z,10.00
2018-12-31T14:33:02.249Z,10.10
2018-12-31T14:35:30.892Z,10.10
2018-12-31T14:37:59.362Z,10.00
2018-12-31T14:40:27.988Z,10.00
2018-12-31T14:42:56.617Z,10.00
2018-12-31T14:45:25.185Z,10.00
2018-12-31T14:47:55.201Z,10.00
2018-12-31T14:50:24.021Z,10.00
2018-12-31T14:52:52.492Z,10.00
2018-12-31T14:55:22.188Z,10.00
2018-12-31T14:57:50.740Z,9.90
2018-12-31T15:00:19.285Z,9.90
2018-12-31T15:02:48.523Z,9.90
2018-12-31T15:05:17.072Z,9.90
2018-12-31T15:07:45.654Z,9.90
2018-12-31T15:10:14.195Z,9.90
2018-12-31T15:12:48.251Z,9.90
2018-12-31T15:15:16.708Z,9.80
2018-12-31T15:17:45.321Z,9.80
2018-12-31T15:20:13.880Z,9.80
2018-12-31T15:22:42.415Z,9.80
2018-12-31T15:25:10.948Z,9.80
2018-12-31T15:27:39.688Z,9.80
2018-12-31T15:30:08.861Z,9.80
2018-12-31T15:32:37.343Z,9.80
2018-12-31T15:35:06.712Z,9.70
2018-12-31T15:37:35.229Z,9.70
2018-12-31T15:40:06.582Z,9.70
2018-12-31T15:42:35.213Z,9.70
2018-12-31T15:45:04.258Z,9.70
2018-12-31T15:47:32.816Z,9.70
2018-12-31T15:50:01.394Z,9.60
2018-12-31T15:52:29.955Z,9.60
2018-12-31T15:54:58.492Z,9.60
2018-12-31T15:57:27.028Z,9.60
2018-12-31T15:59:55.500Z,9.60
2018-12-31T16:02:24.115Z,9.60
2018-12-31T16:04:52.608Z,9.60
2018-12-31T16:07:21.133Z,9.60
2018-12-31T16:09:49.721Z,9.60
2018-12-31T16:12:21.030Z,9.50
2018-12-31T16:14:49.672Z,9.50
2018-12-31T16:17:18.288Z,9.50
2018-12-31T16:19:51.177Z,9.50
2018-12-31T16:22:19.719Z,9.50
2018-12-31T16:24:48.732Z,9.50
2018-12-31T16:27:17.236Z,9.50
2018-12-31T16:29:45.776Z,9.60
2018-12-31T16:32:14.374Z,9.60
2018-12-31T16:34:42.960Z,9.60
2018-12-31T16:37:11.506Z,9.60
2018-12-31T16:39:41.919Z,9.50
2018-12-31T16:42:10.449Z,9.50
2018-12-31T16:44:38.913Z,9.50
2018-12-31T16:47:07.445Z,9.50
2018-12-31T16:49:35.948Z,9.50
2018-12-31T16:52:04.433Z,9.50
2018-12-31T16:54:33.452Z,9.40
2018-12-31T16:57:01.932Z,9.40
2018-12-31T16:59:30.408Z,9.40
2018-12-31T17:01:58.882Z,9.40
2018-12-31T17:04:27.381Z,9.40
2018-12-31T17:06:56.220Z,9.40
2018-12-31T17:09:24.763Z,9.40
2018-12-31T17:11:53.348Z,9.40
2018-12-31T17:14:21.830Z,9.40
2018-12-31T17:16:50.458Z,9.40
2018-12-31T17:19:19.023Z,9.40
2018-12-31T17:21:47.539Z,9.40
2018-12-31T17:24:16.015Z,9.30
2018-12-31T17:26:45.244Z,9.40
2018-12-31T17:29:13.711Z,9.30
2018-12-31T17:31:43.884Z,9.30
2018-12-31T17:34:12.368Z,9.30
2018-12-31T17:36:40.832Z,9.30
2018-12-31T17:39:09.286Z,9.30
2018-12-31T17:41:37.839Z,9.30
2018-12-31T17:44:06.317Z,9.30
2018-12-31T17:46:35.257Z,9.30
2018-12-31T17:49:03.823Z,9.30
2018-12-31T17:51:32.343Z,9.30
2018-12-31T17:54:00.812Z,9.20
2018-12-31T17:56:29.303Z,9.20
2018-12-31T17:58:57.788Z,9.20
2018-12-31T18:01:26.312Z,9.20
2018-12-31T18:03:54.877Z,9.20
2018-12-31T18:06:23.418Z,9.20
2018-12-31T18:08:51.895Z,9.20
2018-12-31T18:11:20.394Z,9.20
2018-12-31T18:13:48.850Z,9.20
2018-12-31T18:16:17.309Z,9.20
2018-12-31T18:18:45.800Z,9.20
2018-12-31T18:21:14.265Z,9.20
2018-12-31T18:23:42.725Z,9.20
2018-12-31T18:26:12.947Z,9.20
2018-12-31T18:28:41.474Z,9.20
2018-12-31T18:31:10.009Z,9.20
2018-12-31T18:33:38.545Z,9.20
2018-12-31T18:36:07.100Z,9.20
2018-12-31T18:38:35.852Z,9.20
2018-12-31T18:41:04.409Z,9.20
2018-12-31T18:43:32.905Z,9.20
2018-12-31T18:46:01.445Z,9.20
2018-12-31T18:48:30.269Z,9.20
2018-12-31T18:50:58.827Z,9.20
2018-12-31T18:53:27.362Z,9.20
2018-12-31T18:55:56.009Z,9.20
2018-12-31T18:58:24.572Z,9.20
2018-12-31T19:00:53.058Z,9.20
2018-12-31T19:03:21.619Z,9.20
2018-12-31T19:05:50.115Z,9.20
2018-12-31T19:08:18.643Z,9.20
2018-12-31T19:10:47.100Z,9.20
2018-12-31T19:13:15.584Z,9.20
2018-12-31T19:15:44.423Z,9.20
2018-12-31T19:18:13.264Z,9.20
2018-12-31T19:20:41.868Z,9.10
2018-12-31T19:23:10.446Z,9.10
2018-12-31T19:25:39.051Z,9.10
2018-12-31T19:28:07.553Z,9.10
2018-12-31T19:30:36.388Z,9.10
2018-12-31T19:33:04.869Z,9.10
2018-12-31T19:35:33.365Z,9.10
2018-12-31T19:38:01.968Z,9.10
2018-12-31T19:40:30.433Z,9.00
2018-12-31T19:42:59.025Z,9.00
2018-12-31T19:45:29.088Z,9.10
2018-12-31T19:47:57.571Z,9.00
2018-12-31T19:50:26.229Z,9.10
2018-12-31T19:52:54.700Z,9.10
2018-12-31T19:55:23.161Z,9.10
2018-12-31T19:57:51.963Z,9.00
2018-12-31T20:00:20.510Z,9.10
2018-12-31T20:02:49.024Z,9.10
2018-12-31T20:05:17.496Z,9.00
2018-12-31T20:07:45.948Z,9.10
2018-12-31T20:10:14.693Z,9.10
2018-12-31T20:12:43.268Z,9.10
2018-12-31T20:15:13.348Z,9.00
2018-12-31T20:17:41.852Z,9.00
2018-12-31T20:20:10.417Z,9.00
2018-12-31T20:22:38.987Z,9.00
2018-12-31T20:25:07.512Z,8.90
2018-12-31T20:27:36.040Z,8.90
2018-12-31T20:30:05.113Z,8.90
2018-12-31T20:32:33.672Z,8.90
2018-12-31T20:35:02.130Z,8.90
2018-12-31T20:37:31.032Z,8.90
2018-12-31T20:39:59.595Z,8.90
2018-12-31T20:42:28.153Z,8.80
2018-12-31T20:44:56.676Z,8.80
2018-12-31T20:47:25.180Z,8.80
2018-12-31T20:49:53.738Z,8.80
2018-12-31T20:52:22.485Z,8.80
2018-12-31T20:54:51.229Z,8.80
2018-12-31T20:57:19.687Z,8.80
2018-12-31T20:59:48.164Z,8.80
2018-12-31T21:02:16.732Z,8.70
2018-12-31T21:04:45.212Z,8.80
2018-12-31T21:07:13.668Z,8.80
2018-12-31T21:09:42.148Z,8.80
2018-12-31T21:12:10.621Z,8.80
2018-12-31T21:14:39.102Z,8.70
2018-12-31T21:17:07.652Z,8.70
2018-12-31T21:19:36.585Z,8.80
2018-12-31T21:22:05.118Z,8.70
2018-12-31T21:24:33.596Z,8.70
2018-12-31T21:27:02.087Z,8.70
2018-12-31T21:29:30.701Z,8.60
2018-12-31T21:31:59.716Z,8.70
2018-12-31T21:34:28.208Z,8.60
2018-12-31T21:36:56.803Z,8.60
2018-12-31T21:39:25.264Z,8.60
2018-12-31T21:41:53.803Z,8.60
2018-12-31T21:44:22.431Z,8.60
2018-12-31T21:46:50.942Z,8.60
2018-12-31T21:49:19.500Z,8.60
2018-12-31T21:51:48.116Z,8.50
2018-12-31T21:54:16.580Z,8.60
2018-12-31T21:56:45.137Z,8.50
2018-12-31T21:59:14.023Z,8.50
2018-12-31T22:01:42.556Z,8.40
2018-12-31T22:04:11.041Z,8.40
2018-12-31T22:06:39.541Z,8.40
2018-12-31T22:09:08.032Z,8.40
2018-12-31T22:11:36.612Z,8.40
2018-12-31T22:14:05.228Z,8.40
2018-12-31T22:16:33.697Z,8.40
2018-12-31T22:19:02.192Z,8.40
2018-12-31T22:21:32.200Z,8.40
2018-12-31T22:24:00.717Z,8.40
2018-12-31T22:26:29.582Z,8.40
2018-12-31T22:28:58.072Z,8.40
2018-12-31T22:31:26.640Z,8.50
2018-12-31T22:33:55.217Z,8.40
2018-12-31T22:36:23.681Z,8.40
2018-12-31T22:38:52.825Z,8.30
2018-12-31T22:41:21.352Z,8.30
2018-12-31T22:43:49.836Z,8.30
2018-12-31T22:46:18.368Z,8.30
2018-12-31T22:48:46.880Z,8.30
2018-12-31T22:51:15.413Z,8.20
2018-12-31T22:53:43.904Z,8.20
2018-12-31T22:56:12.463Z,8.20
2018-12-31T22:58:40.929Z,8.20
2018-12-31T23:01:09.544Z,8.20
2018-12-31T23:03:38.158Z,8.20
2018-12-31T23:06:06.666Z,8.20
2018-12-31T23:08:35.209Z,8.30
2018-12-31T23:11:03.848Z,8.60
2018-12-31T23:13:32.464Z,8.60
2018-12-31T23:16:01.090Z,8.30
2018-12-31T23:18:29.856Z,8.30
2018-12-31T23:21:01.356Z,8.50
2018-12-31T23:23:31.361Z,8.80
2018-12-31T23:25:59.852Z,8.60
2018-12-31T23:28:28.384Z,8.40
2018-12-31T23:30:57.238Z,8.30
2018-12-31T23:33:25.718Z,8.30
2018-12-31T23:35:54.190Z,8.20
2018-12-31T23:38:22.663Z,8.20
2018-12-31T23:41:27.586Z,8.20
2018-12-31T23:43:56.128Z,8.20
2018-12-31T23:46:24.618Z,8.20
2018-12-31T23:48:53.194Z,8.20
2018-12-31T23:51:21.747Z,8.10
2018-12-31T23:53:51.367Z,8.10
2018-12-31T23:56:20.006Z,8.10
2018-12-31T23:58:48.555Z,8.10
